Ashleigh — WDC3260 — position and weather

sailwx.info

Track history (hours):
 
Tides and Currents Weather Stations Pressure Air Temp Water Temp Dewpoint Dewpoint Depression Visibility Wind Speed Wind Dir Waves Ship Positions

Ashleigh

Owner: Cooper Marine & Timberlands Corporation, Mobile, AL. More information available from US FCC via Universal Licensing System and Coast Guard Vessel Documentation Center.

Last reported at 2018-May-18 13:31 UTC. Time now 2018-May-25 01:20 UTC.
Position N 30°23' W 086°55'.

Length 30 m.

Type: Cargo ship. MMSI: 367004850.

Date/timePositionNaut miles runAvg speedWind from/ knotsBaromVisibWave heightAir tempDewpointWater temp
2018-May-18 13:31N 30°23' W 086°55'0 4.7
2018-May-18 13:24N 30°23' W 086°55'2 4.7
2018-May-18 13:00N 30°24' W 086°53'2 4.8
2018-May-18 12:30N 30°24' W 086°50'3 5.2
2018-May-18 12:00N 30°24' W 086°47'11 5.2
2018-May-18 09:53N 30°24' W 086°34'2 5.1
2018-May-18 09:26N 30°25' W 086°32'2 5.2
2018-May-18 09:00N 30°26' W 086°29'3 5.4
2018-May-18 08:30N 30°26' W 086°26'3 5.3
2018-May-18 08:00N 30°26' W 086°23'3 5.1
2018-May-18 07:28N 30°26' W 086°20'2 0.1
2018-May-17 07:22N 30°26' W 086°18'2 5.5
2018-May-17 07:00N 30°26' W 086°20'3 5.6
2018-May-17 06:30N 30°26' W 086°23'3 5.4
2018-May-17 06:00N 30°26' W 086°26'3 5.3
2018-May-17 05:30N 30°26' W 086°29'4 5.3
2018-May-17 04:43N 30°24' W 086°34'9 4.3
2018-May-17 02:43N 30°24' W 086°44'1 4.7
2018-May-17 02:30N 30°24' W 086°45'2 4.9
2018-May-17 02:00N 30°24' W 086°48'3 5.1
2018-May-17 01:30N 30°24' W 086°51'2 4.9
2018-May-17 01:00N 30°24' W 086°53'3 5.1
2018-May-17 00:30N 30°23' W 086°56'  
Track history (hours):
 
Tides and Currents Weather Stations Pressure Air Temp Water Temp Dewpoint Dewpoint Depression Visibility Wind Speed Wind Dir Waves Ship Positions

Ashleigh

Owner: Cooper Marine & Timberlands Corporation, Mobile, AL. More information available from US FCC via Universal Licensing System and Coast Guard Vessel Documentation Center.

Last reported at 2018-May-18 13:31 UTC. Time now 2018-May-25 01:20 UTC.
Position N 30°23' W 086°55'.

Length 30 m.

Type: Cargo ship. MMSI: 367004850.

Date/timePositionNaut miles runAvg speedWind from/ knotsBaromVisibWave heightAir tempDewpointWater temp
2018-May-18 13:31N 30°23' W 086°55'0 4.7
2018-May-18 13:24N 30°23' W 086°55'2 4.7
2018-May-18 13:00N 30°24' W 086°53'2 4.8
2018-May-18 12:30N 30°24' W 086°50'3 5.2
2018-May-18 12:00N 30°24' W 086°47'11 5.2
2018-May-18 09:53N 30°24' W 086°34'2 5.1
2018-May-18 09:26N 30°25' W 086°32'2 5.2
2018-May-18 09:00N 30°26' W 086°29'3 5.4
2018-May-18 08:30N 30°26' W 086°26'3 5.3
2018-May-18 08:00N 30°26' W 086°23'3 5.1
2018-May-18 07:28N 30°26' W 086°20'2 0.1
2018-May-17 07:22N 30°26' W 086°18'2 5.5
2018-May-17 07:00N 30°26' W 086°20'3 5.6
2018-May-17 06:30N 30°26' W 086°23'3 5.4
2018-May-17 06:00N 30°26' W 086°26'3 5.3
2018-May-17 05:30N 30°26' W 086°29'4 5.3
2018-May-17 04:43N 30°24' W 086°34'9 4.3
2018-May-17 02:43N 30°24' W 086°44'1 4.7
2018-May-17 02:30N 30°24' W 086°45'2 4.9
2018-May-17 02:00N 30°24' W 086°48'3 5.1
2018-May-17 01:30N 30°24' W 086°51'2 4.9
2018-May-17 01:00N 30°24' W 086°53'3 5.1
2018-May-17 00:30N 30°23' W 086°56'  

Dump ship's entire track history